sensor_id;sensor_type;location;lat;lon;timestamp;P1;durP1;ratioP1;P2;durP2;ratioP2
50815;SDS011;39717;47.324;8.788;2022-11-04T00:01:43;0.60;;;0.60;;
50815;SDS011;39717;47.324;8.788;2022-11-04T00:04:10;0.50;;;0.50;;
50815;SDS011;39717;47.324;8.788;2022-11-04T00:06:38;1.27;;;0.67;;
50815;SDS011;39717;47.324;8.788;2022-11-04T00:09:06;1.03;;;0.60;;
50815;SDS011;39717;47.324;8.788;2022-11-04T00:11:35;0.80;;;0.70;;
50815;SDS011;39717;47.324;8.788;2022-11-04T00:14:19;2.73;;;0.80;;
50815;SDS011;39717;47.324;8.788;2022-11-04T00:16:45;0.50;;;0.50;;
50815;SDS011;39717;47.324;8.788;2022-11-04T00:19:30;0.70;;;0.70;;
50815;SDS011;39717;47.324;8.788;2022-11-04T00:22:15;0.60;;;0.60;;
50815;SDS011;39717;47.324;8.788;2022-11-04T00:25:00;0.77;;;0.73;;
50815;SDS011;39717;47.324;8.788;2022-11-04T00:27:44;0.60;;;0.60;;
50815;SDS011;39717;47.324;8.788;2022-11-04T00:30:29;0.63;;;0.63;;
50815;SDS011;39717;47.324;8.788;2022-11-04T00:32:55;0.57;;;0.57;;
50815;SDS011;39717;47.324;8.788;2022-11-04T00:35:39;0.60;;;0.60;;
50815;SDS011;39717;47.324;8.788;2022-11-04T00:38:05;1.00;;;0.80;;
50815;SDS011;39717;47.324;8.788;2022-11-04T00:40:31;0.50;;;0.50;;
50815;SDS011;39717;47.324;8.788;2022-11-04T00:42:56;0.70;;;0.70;;
50815;SDS011;39717;47.324;8.788;2022-11-04T00:45:22;0.60;;;0.60;;
50815;SDS011;39717;47.324;8.788;2022-11-04T00:47:48;0.70;;;0.70;;
50815;SDS011;39717;47.324;8.788;2022-11-04T00:50:15;0.70;;;0.70;;
50815;SDS011;39717;47.324;8.788;2022-11-04T00:52:40;0.70;;;0.70;;
50815;SDS011;39717;47.324;8.788;2022-11-04T00:55:06;0.80;;;0.80;;
50815;SDS011;39717;47.324;8.788;2022-11-04T00:57:32;0.70;;;0.70;;
50815;SDS011;39717;47.324;8.788;2022-11-04T00:59:58;0.53;;;0.53;;
50815;SDS011;39717;47.324;8.788;2022-11-04T01:02:24;1.03;;;0.60;;
50815;SDS011;39717;47.324;8.788;2022-11-04T01:04:51;0.67;;;0.67;;
50815;SDS011;39717;47.324;8.788;2022-11-04T01:07:18;0.63;;;0.63;;
50815;SDS011;39717;47.324;8.788;2022-11-04T01:09:44;0.63;;;0.63;;
50815;SDS011;39717;47.324;8.788;2022-11-04T01:12:10;0.70;;;0.60;;
50815;SDS011;39717;47.324;8.788;2022-11-04T01:14:37;0.90;;;0.60;;
50815;SDS011;39717;47.324;8.788;2022-11-04T01:17:03;0.63;;;0.63;;
50815;SDS011;39717;47.324;8.788;2022-11-04T01:19:28;0.70;;;0.70;;
50815;SDS011;39717;47.324;8.788;2022-11-04T01:21:54;0.60;;;0.60;;
50815;SDS011;39717;47.324;8.788;2022-11-04T01:24:20;0.67;;;0.67;;
50815;SDS011;39717;47.324;8.788;2022-11-04T01:26:46;1.30;;;0.67;;
50815;SDS011;39717;47.324;8.788;2022-11-04T01:29:11;0.73;;;0.73;;
50815;SDS011;39717;47.324;8.788;2022-11-04T01:31:37;0.90;;;0.90;;
50815;SDS011;39717;47.324;8.788;2022-11-04T01:34:04;0.90;;;0.87;;
50815;SDS011;39717;47.324;8.788;2022-11-04T01:36:29;0.87;;;0.83;;
50815;SDS011;39717;47.324;8.788;2022-11-04T01:38:55;0.70;;;0.70;;
50815;SDS011;39717;47.324;8.788;2022-11-04T01:41:26;0.80;;;0.80;;
50815;SDS011;39717;47.324;8.788;2022-11-04T01:43:55;1.57;;;0.90;;
50815;SDS011;39717;47.324;8.788;2022-11-04T01:46:48;0.80;;;0.80;;
50815;SDS011;39717;47.324;8.788;2022-11-04T01:49:34;0.70;;;0.70;;
50815;SDS011;39717;47.324;8.788;2022-11-04T01:52:11;0.70;;;0.70;;
50815;SDS011;39717;47.324;8.788;2022-11-04T01:54:44;0.70;;;0.70;;
50815;SDS011;39717;47.324;8.788;2022-11-04T01:57:14;0.60;;;0.60;;
50815;SDS011;39717;47.324;8.788;2022-11-04T01:59:44;0.50;;;0.50;;
50815;SDS011;39717;47.324;8.788;2022-11-04T02:02:11;0.70;;;0.70;;
50815;SDS011;39717;47.324;8.788;2022-11-04T02:04:37;1.37;;;0.80;;
50815;SDS011;39717;47.324;8.788;2022-11-04T02:07:07;0.63;;;0.63;;
50815;SDS011;39717;47.324;8.788;2022-11-04T02:09:34;0.60;;;0.60;;
50815;SDS011;39717;47.324;8.788;2022-11-04T02:12:02;0.47;;;0.47;;
50815;SDS011;39717;47.324;8.788;2022-11-04T02:14:48;0.57;;;0.57;;
50815;SDS011;39717;47.324;8.788;2022-11-04T02:37:05;0.50;;;0.50;;
50815;SDS011;39717;47.324;8.788;2022-11-04T02:42:44;0.50;;;0.50;;
50815;SDS011;39717;47.324;8.788;2022-11-04T02:48:26;0.93;;;0.70;;
50815;SDS011;39717;47.324;8.788;2022-11-04T02:51:11;0.70;;;0.70;;
50815;SDS011;39717;47.324;8.788;2022-11-04T02:53:46;0.60;;;0.50;;
50815;SDS011;39717;47.324;8.788;2022-11-04T02:56:26;0.60;;;0.60;;
50815;SDS011;39717;47.324;8.788;2022-11-04T02:58:56;0.60;;;0.60;;
50815;SDS011;39717;47.324;8.788;2022-11-04T03:01:28;0.43;;;0.43;;
50815;SDS011;39717;47.324;8.788;2022-11-04T03:04:04;0.53;;;0.53;;
50815;SDS011;39717;47.324;8.788;2022-11-04T03:06:35;0.67;;;0.67;;
50815;SDS011;39717;47.324;8.788;2022-11-04T03:09:02;0.77;;;0.60;;
50815;SDS011;39717;47.324;8.788;2022-11-04T03:11:28;0.50;;;0.50;;
50815;SDS011;39717;47.324;8.788;2022-11-04T03:13:57;0.50;;;0.50;;
50815;SDS011;39717;47.324;8.788;2022-11-04T03:16:28;0.93;;;0.70;;
50815;SDS011;39717;47.324;8.788;2022-11-04T03:22:21;3.07;;;1.30;;
50815;SDS011;39717;47.324;8.788;2022-11-04T03:24:58;1.20;;;0.80;;
50815;SDS011;39717;47.324;8.788;2022-11-04T03:27:34;0.73;;;0.70;;
50815;SDS011;39717;47.324;8.788;2022-11-04T03:30:11;0.50;;;0.50;;
50815;SDS011;39717;47.324;8.788;2022-11-04T03:35:17;1.13;;;0.70;;
50815;SDS011;39717;47.324;8.788;2022-11-04T03:37:44;0.57;;;0.57;;
50815;SDS011;39717;47.324;8.788;2022-11-04T03:40:12;0.70;;;0.67;;
50815;SDS011;39717;47.324;8.788;2022-11-04T03:42:44;0.60;;;0.60;;
50815;SDS011;39717;47.324;8.788;2022-11-04T03:45:13;0.80;;;0.80;;
50815;SDS011;39717;47.324;8.788;2022-11-04T03:47:42;1.40;;;1.30;;
50815;SDS011;39717;47.324;8.788;2022-11-04T03:50:20;1.33;;;0.83;;
50815;SDS011;39717;47.324;8.788;2022-11-04T03:52:56;0.80;;;0.80;;
50815;SDS011;39717;47.324;8.788;2022-11-04T04:01:38;0.87;;;0.60;;
50815;SDS011;39717;47.324;8.788;2022-11-04T04:04:21;1.93;;;0.80;;
50815;SDS011;39717;47.324;8.788;2022-11-04T04:07:03;0.40;;;0.40;;
50815;SDS011;39717;47.324;8.788;2022-11-04T04:09:42;0.50;;;0.50;;
50815;SDS011;39717;47.324;8.788;2022-11-04T04:12:17;1.17;;;0.73;;
50815;SDS011;39717;47.324;8.788;2022-11-04T04:14:48;0.60;;;0.60;;
50815;SDS011;39717;47.324;8.788;2022-11-04T04:17:24;0.70;;;0.70;;
50815;SDS011;39717;47.324;8.788;2022-11-04T04:19:57;0.63;;;0.60;;
50815;SDS011;39717;47.324;8.788;2022-11-04T04:22:28;0.30;;;0.30;;
50815;SDS011;39717;47.324;8.788;2022-11-04T04:24:57;0.40;;;0.40;;
50815;SDS011;39717;47.324;8.788;2022-11-04T04:27:43;0.40;;;0.40;;
50815;SDS011;39717;47.324;8.788;2022-11-04T04:30:11;0.90;;;0.70;;
50815;SDS011;39717;47.324;8.788;2022-11-04T04:32:46;0.70;;;0.70;;
50815;SDS011;39717;47.324;8.788;2022-11-04T04:35:12;2.30;;;0.80;;
50815;SDS011;39717;47.324;8.788;2022-11-04T04:37:59;2.07;;;0.67;;
50815;SDS011;39717;47.324;8.788;2022-11-04T04:41:45;1.83;;;0.67;;
50815;SDS011;39717;47.324;8.788;2022-11-04T04:43:58;0.40;;;0.40;;
50815;SDS011;39717;47.324;8.788;2022-11-04T04:46:44;1.13;;;0.70;;
50815;SDS011;39717;47.324;8.788;2022-11-04T04:49:13;0.90;;;0.90;;
50815;SDS011;39717;47.324;8.788;2022-11-04T04:51:41;0.70;;;0.57;;
50815;SDS011;39717;47.324;8.788;2022-11-04T04:54:09;0.60;;;0.60;;
50815;SDS011;39717;47.324;8.788;2022-11-04T04:56:36;0.60;;;0.60;;
50815;SDS011;39717;47.324;8.788;2022-11-04T04:59:02;0.60;;;0.60;;
50815;SDS011;39717;47.324;8.788;2022-11-04T05:01:29;1.37;;;0.60;;
50815;SDS011;39717;47.324;8.788;2022-11-04T05:03:55;0.57;;;0.57;;
50815;SDS011;39717;47.324;8.788;2022-11-04T05:06:21;1.07;;;0.80;;
50815;SDS011;39717;47.324;8.788;2022-11-04T05:08:47;1.10;;;0.63;;
50815;SDS011;39717;47.324;8.788;2022-11-04T05:11:13;1.60;;;0.60;;
50815;SDS011;39717;47.324;8.788;2022-11-04T05:13:39;1.10;;;0.70;;
50815;SDS011;39717;47.324;8.788;2022-11-04T05:16:07;2.30;;;0.50;;
50815;SDS011;39717;47.324;8.788;2022-11-04T05:18:34;1.90;;;0.60;;
50815;SDS011;39717;47.324;8.788;2022-11-04T05:21:04;0.60;;;0.60;;
50815;SDS011;39717;47.324;8.788;2022-11-04T05:23:33;1.17;;;0.53;;
50815;SDS011;39717;47.324;8.788;2022-11-04T05:26:00;1.03;;;0.80;;
50815;SDS011;39717;47.324;8.788;2022-11-04T05:28:26;1.77;;;0.70;;
50815;SDS011;39717;47.324;8.788;2022-11-04T05:30:53;0.50;;;0.50;;
50815;SDS011;39717;47.324;8.788;2022-11-04T05:33:19;1.43;;;0.90;;
50815;SDS011;39717;47.324;8.788;2022-11-04T05:35:46;0.97;;;0.87;;
50815;SDS011;39717;47.324;8.788;2022-11-04T05:38:12;0.70;;;0.70;;
50815;SDS011;39717;47.324;8.788;2022-11-04T05:40:38;0.83;;;0.83;;
50815;SDS011;39717;47.324;8.788;2022-11-04T05:43:04;1.87;;;1.30;;
50815;SDS011;39717;47.324;8.788;2022-11-04T05:45:32;2.33;;;1.20;;
50815;SDS011;39717;47.324;8.788;2022-11-04T05:48:01;2.83;;;1.50;;
50815;SDS011;39717;47.324;8.788;2022-11-04T05:50:28;2.47;;;1.30;;
50815;SDS011;39717;47.324;8.788;2022-11-04T05:52:58;2.30;;;1.17;;
50815;SDS011;39717;47.324;8.788;2022-11-04T05:55:24;5.10;;;1.37;;
50815;SDS011;39717;47.324;8.788;2022-11-04T05:57:50;1.37;;;1.10;;
50815;SDS011;39717;47.324;8.788;2022-11-04T06:00:18;1.77;;;1.23;;
50815;SDS011;39717;47.324;8.788;2022-11-04T06:02:45;1.57;;;1.20;;
50815;SDS011;39717;47.324;8.788;2022-11-04T06:05:12;1.73;;;1.40;;
50815;SDS011;39717;47.324;8.788;2022-11-04T06:07:38;1.73;;;1.20;;
50815;SDS011;39717;47.324;8.788;2022-11-04T06:10:06;2.57;;;1.50;;
50815;SDS011;39717;47.324;8.788;2022-11-04T06:12:33;5.53;;;2.03;;
50815;SDS011;39717;47.324;8.788;2022-11-04T06:14:59;4.53;;;1.70;;
50815;SDS011;39717;47.324;8.788;2022-11-04T06:17:25;2.10;;;1.50;;
50815;SDS011;39717;47.324;8.788;2022-11-04T06:19:51;1.93;;;1.20;;
50815;SDS011;39717;47.324;8.788;2022-11-04T06:22:18;2.53;;;1.60;;
50815;SDS011;39717;47.324;8.788;2022-11-04T06:24:44;2.07;;;1.13;;
50815;SDS011;39717;47.324;8.788;2022-11-04T06:27:11;2.63;;;2.00;;
50815;SDS011;39717;47.324;8.788;2022-11-04T06:29:37;1.20;;;1.10;;
50815;SDS011;39717;47.324;8.788;2022-11-04T06:32:06;1.10;;;1.03;;
50815;SDS011;39717;47.324;8.788;2022-11-04T06:34:33;2.83;;;1.10;;
50815;SDS011;39717;47.324;8.788;2022-11-04T06:36:59;1.87;;;1.07;;
50815;SDS011;39717;47.324;8.788;2022-11-04T06:39:25;2.00;;;1.13;;
50815;SDS011;39717;47.324;8.788;2022-11-04T06:41:51;2.23;;;1.37;;
50815;SDS011;39717;47.324;8.788;2022-11-04T06:44:17;1.30;;;1.20;;
50815;SDS011;39717;47.324;8.788;2022-11-04T06:46:43;2.40;;;1.27;;
50815;SDS011;39717;47.324;8.788;2022-11-04T06:49:11;1.57;;;1.10;;
50815;SDS011;39717;47.324;8.788;2022-11-04T06:51:38;1.83;;;1.10;;
50815;SDS011;39717;47.324;8.788;2022-11-04T06:54:05;3.50;;;1.53;;
50815;SDS011;39717;47.324;8.788;2022-11-04T06:56:31;1.90;;;1.27;;
50815;SDS011;39717;47.324;8.788;2022-11-04T06:58:57;2.23;;;1.27;;
50815;SDS011;39717;47.324;8.788;2022-11-04T07:01:25;1.37;;;1.20;;
50815;SDS011;39717;47.324;8.788;2022-11-04T07:03:52;2.40;;;1.20;;
50815;SDS011;39717;47.324;8.788;2022-11-04T07:06:19;1.33;;;1.10;;
50815;SDS011;39717;47.324;8.788;2022-11-04T07:08:49;1.20;;;1.10;;
50815;SDS011;39717;47.324;8.788;2022-11-04T07:11:16;3.37;;;1.40;;
50815;SDS011;39717;47.324;8.788;2022-11-04T07:13:42;2.07;;;1.37;;
50815;SDS011;39717;47.324;8.788;2022-11-04T07:16:08;1.97;;;1.20;;
50815;SDS011;39717;47.324;8.788;2022-11-04T07:18:35;2.20;;;1.40;;
50815;SDS011;39717;47.324;8.788;2022-11-04T07:21:02;2.20;;;1.50;;
50815;SDS011;39717;47.324;8.788;2022-11-04T07:23:29;1.93;;;1.40;;
50815;SDS011;39717;47.324;8.788;2022-11-04T07:25:59;1.67;;;1.43;;
50815;SDS011;39717;47.324;8.788;2022-11-04T07:28:25;1.77;;;1.47;;
50815;SDS011;39717;47.324;8.788;2022-11-04T07:30:56;2.80;;;1.30;;
50815;SDS011;39717;47.324;8.788;2022-11-04T07:33:23;2.83;;;2.10;;
50815;SDS011;39717;47.324;8.788;2022-11-04T07:35:51;3.63;;;2.03;;
50815;SDS011;39717;47.324;8.788;2022-11-04T07:38:18;3.80;;;2.40;;
50815;SDS011;39717;47.324;8.788;2022-11-04T07:40:44;2.30;;;1.90;;
50815;SDS011;39717;47.324;8.788;2022-11-04T07:43:11;3.30;;;1.93;;
50815;SDS011;39717;47.324;8.788;2022-11-04T07:45:37;2.10;;;1.70;;
50815;SDS011;39717;47.324;8.788;2022-11-04T07:48:03;2.03;;;1.57;;
50815;SDS011;39717;47.324;8.788;2022-11-04T07:50:30;2.53;;;1.90;;
50815;SDS011;39717;47.324;8.788;2022-11-04T07:52:56;3.27;;;1.97;;
50815;SDS011;39717;47.324;8.788;2022-11-04T07:55:22;2.63;;;1.77;;
50815;SDS011;39717;47.324;8.788;2022-11-04T07:57:49;1.30;;;1.20;;
50815;SDS011;39717;47.324;8.788;2022-11-04T08:00:15;3.93;;;1.70;;
50815;SDS011;39717;47.324;8.788;2022-11-04T08:02:42;1.70;;;1.40;;
50815;SDS011;39717;47.324;8.788;2022-11-04T08:05:12;2.03;;;1.67;;
50815;SDS011;39717;47.324;8.788;2022-11-04T08:07:39;2.47;;;1.50;;
50815;SDS011;39717;47.324;8.788;2022-11-04T08:10:05;3.20;;;1.47;;
50815;SDS011;39717;47.324;8.788;2022-11-04T08:12:32;1.97;;;1.33;;
50815;SDS011;39717;47.324;8.788;2022-11-04T08:14:59;2.83;;;1.20;;
50815;SDS011;39717;47.324;8.788;2022-11-04T08:17:25;2.50;;;1.60;;
50815;SDS011;39717;47.324;8.788;2022-11-04T08:19:51;2.83;;;1.67;;
50815;SDS011;39717;47.324;8.788;2022-11-04T08:22:19;3.50;;;2.23;;
50815;SDS011;39717;47.324;8.788;2022-11-04T08:24:45;3.20;;;1.73;;
50815;SDS011;39717;47.324;8.788;2022-11-04T08:27:14;3.00;;;1.40;;
50815;SDS011;39717;47.324;8.788;2022-11-04T08:29:40;1.43;;;1.20;;
50815;SDS011;39717;47.324;8.788;2022-11-04T08:32:06;1.47;;;1.37;;
50815;SDS011;39717;47.324;8.788;2022-11-04T08:34:33;1.40;;;1.27;;
50815;SDS011;39717;47.324;8.788;2022-11-04T08:36:59;3.23;;;1.23;;
50815;SDS011;39717;47.324;8.788;2022-11-04T08:39:25;1.33;;;1.23;;
50815;SDS011;39717;47.324;8.788;2022-11-04T08:41:52;3.97;;;1.20;;
50815;SDS011;39717;47.324;8.788;2022-11-04T08:44:18;1.43;;;1.20;;
50815;SDS011;39717;47.324;8.788;2022-11-04T08:46:45;2.73;;;1.37;;
50815;SDS011;39717;47.324;8.788;2022-11-04T08:49:11;2.60;;;1.20;;
50815;SDS011;39717;47.324;8.788;2022-11-04T08:51:39;1.87;;;1.43;;
50815;SDS011;39717;47.324;8.788;2022-11-04T08:54:06;2.30;;;1.23;;
50815;SDS011;39717;47.324;8.788;2022-11-04T08:56:34;1.43;;;1.10;;
50815;SDS011;39717;47.324;8.788;2022-11-04T08:59:00;1.10;;;1.00;;
50815;SDS011;39717;47.324;8.788;2022-11-04T09:01:27;1.23;;;1.00;;
50815;SDS011;39717;47.324;8.788;2022-11-04T09:03:54;1.10;;;1.00;;
50815;SDS011;39717;47.324;8.788;2022-11-04T09:06:22;2.30;;;1.90;;
50815;SDS011;39717;47.324;8.788;2022-11-04T09:08:48;1.57;;;1.10;;
50815;SDS011;39717;47.324;8.788;2022-11-04T09:11:15;1.30;;;1.20;;
50815;SDS011;39717;47.324;8.788;2022-11-04T09:13:42;1.00;;;1.00;;
50815;SDS011;39717;47.324;8.788;2022-11-04T09:16:10;2.07;;;1.60;;
50815;SDS011;39717;47.324;8.788;2022-11-04T09:18:38;2.67;;;1.20;;
50815;SDS011;39717;47.324;8.788;2022-11-04T09:21:05;1.77;;;1.20;;
50815;SDS011;39717;47.324;8.788;2022-11-04T09:23:32;1.20;;;1.10;;
50815;SDS011;39717;47.324;8.788;2022-11-04T09:26:20;1.70;;;0.97;;
50815;SDS011;39717;47.324;8.788;2022-11-04T09:28:46;1.97;;;1.20;;
50815;SDS011;39717;47.324;8.788;2022-11-04T09:31:14;1.13;;;1.00;;
50815;SDS011;39717;47.324;8.788;2022-11-04T09:33:42;1.10;;;0.80;;
50815;SDS011;39717;47.324;8.788;2022-11-04T09:36:10;2.50;;;1.00;;
50815;SDS011;39717;47.324;8.788;2022-11-04T09:38:37;1.37;;;1.20;;
50815;SDS011;39717;47.324;8.788;2022-11-04T09:41:08;6.83;;;2.03;;
50815;SDS011;39717;47.324;8.788;2022-11-04T09:46:16;4.37;;;1.73;;
50815;SDS011;39717;47.324;8.788;2022-11-04T09:48:44;2.17;;;1.07;;
50815;SDS011;39717;47.324;8.788;2022-11-04T09:51:15;2.37;;;1.20;;
50815;SDS011;39717;47.324;8.788;2022-11-04T09:53:46;1.90;;;0.90;;
50815;SDS011;39717;47.324;8.788;2022-11-04T09:56:29;2.13;;;1.00;;
50815;SDS011;39717;47.324;8.788;2022-11-04T09:59:02;1.53;;;1.33;;
50815;SDS011;39717;47.324;8.788;2022-11-04T10:01:31;2.47;;;0.80;;
50815;SDS011;39717;47.324;8.788;2022-11-04T10:14:28;1.40;;;0.90;;
50815;SDS011;39717;47.324;8.788;2022-11-04T10:19:58;1.60;;;1.17;;
50815;SDS011;39717;47.324;8.788;2022-11-04T10:22:33;1.23;;;0.90;;
50815;SDS011;39717;47.324;8.788;2022-11-04T10:25:12;0.97;;;0.80;;
50815;SDS011;39717;47.324;8.788;2022-11-04T10:27:40;0.97;;;0.73;;
50815;SDS011;39717;47.324;8.788;2022-11-04T10:37:54;1.17;;;0.73;;
50815;SDS011;39717;47.324;8.788;2022-11-04T10:40:24;1.97;;;0.90;;
50815;SDS011;39717;47.324;8.788;2022-11-04T10:42:50;1.20;;;0.60;;
50815;SDS011;39717;47.324;8.788;2022-11-04T10:45:17;0.97;;;0.73;;
50815;SDS011;39717;47.324;8.788;2022-11-04T10:47:55;2.63;;;0.90;;
50815;SDS011;39717;47.324;8.788;2022-11-04T10:50:24;1.73;;;0.60;;
50815;SDS011;39717;47.324;8.788;2022-11-04T10:53:10;1.87;;;1.00;;
50815;SDS011;39717;47.324;8.788;2022-11-04T10:58:07;2.20;;;0.63;;
50815;SDS011;39717;47.324;8.788;2022-11-04T11:00:37;0.83;;;0.83;;
50815;SDS011;39717;47.324;8.788;2022-11-04T11:05:52;13.47;;;3.70;;
50815;SDS011;39717;47.324;8.788;2022-11-04T11:08:27;37.33;;;9.50;;
50815;SDS011;39717;47.324;8.788;2022-11-04T11:10:54;2.37;;;1.10;;
50815;SDS011;39717;47.324;8.788;2022-11-04T11:13:25;2.00;;;1.20;;
50815;SDS011;39717;47.324;8.788;2022-11-04T11:16:11;1.20;;;0.73;;
50815;SDS011;39717;47.324;8.788;2022-11-04T11:18:38;2.67;;;1.63;;
50815;SDS011;39717;47.324;8.788;2022-11-04T11:23:35;3.10;;;1.23;;
50815;SDS011;39717;47.324;8.788;2022-11-04T11:26:03;7.57;;;1.37;;
50815;SDS011;39717;47.324;8.788;2022-11-04T11:28:31;1.30;;;1.20;;
50815;SDS011;39717;47.324;8.788;2022-11-04T11:31:08;0.70;;;0.70;;
50815;SDS011;39717;47.324;8.788;2022-11-04T11:33:45;1.17;;;0.80;;
50815;SDS011;39717;47.324;8.788;2022-11-04T11:36:16;1.40;;;0.73;;
50815;SDS011;39717;47.324;8.788;2022-11-04T11:39:18;4.83;;;2.20;;
50815;SDS011;39717;47.324;8.788;2022-11-04T11:42:21;4.47;;;0.80;;
50815;SDS011;39717;47.324;8.788;2022-11-04T11:44:29;2.53;;;0.97;;
50815;SDS011;39717;47.324;8.788;2022-11-04T11:47:02;5.03;;;2.50;;
50815;SDS011;39717;47.324;8.788;2022-11-04T11:49:37;4.50;;;3.10;;
50815;SDS011;39717;47.324;8.788;2022-11-04T11:54:49;2.90;;;1.70;;
50815;SDS011;39717;47.324;8.788;2022-11-04T11:57:39;1.17;;;1.07;;
50815;SDS011;39717;47.324;8.788;2022-11-04T12:00:09;2.87;;;1.10;;
50815;SDS011;39717;47.324;8.788;2022-11-04T12:05:11;6.33;;;3.20;;
50815;SDS011;39717;47.324;8.788;2022-11-04T12:07:42;2.37;;;1.50;;
50815;SDS011;39717;47.324;8.788;2022-11-04T12:17:48;2.83;;;1.40;;
50815;SDS011;39717;47.324;8.788;2022-11-04T12:22:46;6.30;;;4.33;;
50815;SDS011;39717;47.324;8.788;2022-11-04T12:28:05;2.77;;;1.60;;
50815;SDS011;39717;47.324;8.788;2022-11-04T12:30:45;8.17;;;2.30;;
50815;SDS011;39717;47.324;8.788;2022-11-04T12:33:28;6.93;;;3.07;;
50815;SDS011;39717;47.324;8.788;2022-11-04T12:43:49;4.63;;;2.90;;
50815;SDS011;39717;47.324;8.788;2022-11-04T12:49:12;5.83;;;1.70;;
50815;SDS011;39717;47.324;8.788;2022-11-04T12:54:49;3.47;;;2.03;;
50815;SDS011;39717;47.324;8.788;2022-11-04T12:58:22;5.33;;;2.53;;
50815;SDS011;39717;47.324;8.788;2022-11-04T13:00:16;7.37;;;2.37;;
50815;SDS011;39717;47.324;8.788;2022-11-04T13:02:47;2.13;;;1.30;;
50815;SDS011;39717;47.324;8.788;2022-11-04T13:07:52;5.13;;;1.50;;
50815;SDS011;39717;47.324;8.788;2022-11-04T13:12:58;2.87;;;1.20;;
50815;SDS011;39717;47.324;8.788;2022-11-04T13:15:26;3.33;;;1.00;;
50815;SDS011;39717;47.324;8.788;2022-11-04T13:17:56;3.50;;;1.67;;
50815;SDS011;39717;47.324;8.788;2022-11-04T13:20:29;2.83;;;1.50;;
50815;SDS011;39717;47.324;8.788;2022-11-04T13:22:58;2.50;;;1.40;;
50815;SDS011;39717;47.324;8.788;2022-11-04T13:25:41;2.90;;;1.40;;
50815;SDS011;39717;47.324;8.788;2022-11-04T13:28:11;2.47;;;1.20;;
50815;SDS011;39717;47.324;8.788;2022-11-04T13:30:49;2.47;;;1.47;;
50815;SDS011;39717;47.324;8.788;2022-11-04T13:38:34;2.47;;;1.30;;
50815;SDS011;39717;47.324;8.788;2022-11-04T13:41:41;3.07;;;1.30;;
50815;SDS011;39717;47.324;8.788;2022-11-04T13:43:58;2.70;;;1.60;;
50815;SDS011;39717;47.324;8.788;2022-11-04T13:46:28;3.27;;;2.13;;
50815;SDS011;39717;47.324;8.788;2022-11-04T13:51:37;3.53;;;1.37;;
50815;SDS011;39717;47.324;8.788;2022-11-04T13:54:03;1.67;;;1.30;;
50815;SDS011;39717;47.324;8.788;2022-11-04T13:56:36;2.13;;;1.20;;
50815;SDS011;39717;47.324;8.788;2022-11-04T13:59:06;2.97;;;0.90;;
50815;SDS011;39717;47.324;8.788;2022-11-04T14:01:42;3.73;;;1.30;;
50815;SDS011;39717;47.324;8.788;2022-11-04T14:14:53;23.97;;;5.87;;
50815;SDS011;39717;47.324;8.788;2022-11-04T14:20:14;5.13;;;2.93;;
50815;SDS011;39717;47.324;8.788;2022-11-04T14:23:00;3.50;;;1.37;;
50815;SDS011;39717;47.324;8.788;2022-11-04T14:27:57;10.50;;;7.20;;
50815;SDS011;39717;47.324;8.788;2022-11-04T14:33:20;8.57;;;5.53;;
50815;SDS011;39717;47.324;8.788;2022-11-04T14:35:51;2.57;;;1.47;;
50815;SDS011;39717;47.324;8.788;2022-11-04T14:40:52;2.53;;;1.23;;
50815;SDS011;39717;47.324;8.788;2022-11-04T14:43:39;5.37;;;1.90;;
50815;SDS011;39717;47.324;8.788;2022-11-04T14:46:08;4.43;;;1.37;;
50815;SDS011;39717;47.324;8.788;2022-11-04T14:48:39;2.27;;;1.37;;
50815;SDS011;39717;47.324;8.788;2022-11-04T14:51:18;4.70;;;1.37;;
50815;SDS011;39717;47.324;8.788;2022-11-04T14:54:02;1.90;;;1.70;;
50815;SDS011;39717;47.324;8.788;2022-11-04T14:56:30;1.83;;;1.17;;
50815;SDS011;39717;47.324;8.788;2022-11-04T14:59:01;1.20;;;1.03;;
50815;SDS011;39717;47.324;8.788;2022-11-04T15:01:30;2.00;;;1.40;;
50815;SDS011;39717;47.324;8.788;2022-11-04T15:04:05;3.30;;;1.30;;
50815;SDS011;39717;47.324;8.788;2022-11-04T15:06:56;2.23;;;1.33;;
50815;SDS011;39717;47.324;8.788;2022-11-04T15:09:34;3.17;;;2.07;;
50815;SDS011;39717;47.324;8.788;2022-11-04T15:12:11;2.73;;;1.50;;
50815;SDS011;39717;47.324;8.788;2022-11-04T15:14:57;3.13;;;1.53;;
50815;SDS011;39717;47.324;8.788;2022-11-04T15:17:27;4.00;;;1.30;;
50815;SDS011;39717;47.324;8.788;2022-11-04T15:19:56;3.47;;;1.40;;
50815;SDS011;39717;47.324;8.788;2022-11-04T15:22:23;1.37;;;1.23;;
50815;SDS011;39717;47.324;8.788;2022-11-04T15:24:49;6.13;;;1.80;;
50815;SDS011;39717;47.324;8.788;2022-11-04T15:27:16;2.80;;;1.47;;
50815;SDS011;39717;47.324;8.788;2022-11-04T15:29:53;4.47;;;2.13;;
50815;SDS011;39717;47.324;8.788;2022-11-04T15:32:20;4.03;;;1.20;;
50815;SDS011;39717;47.324;8.788;2022-11-04T15:34:46;3.03;;;1.50;;
50815;SDS011;39717;47.324;8.788;2022-11-04T15:37:12;2.63;;;1.50;;
50815;SDS011;39717;47.324;8.788;2022-11-04T15:39:39;2.83;;;1.53;;
50815;SDS011;39717;47.324;8.788;2022-11-04T15:42:10;3.90;;;1.20;;
50815;SDS011;39717;47.324;8.788;2022-11-04T15:44:56;2.97;;;1.07;;
50815;SDS011;39717;47.324;8.788;2022-11-04T15:47:24;2.30;;;1.20;;
50815;SDS011;39717;47.324;8.788;2022-11-04T15:49:51;1.47;;;1.27;;
50815;SDS011;39717;47.324;8.788;2022-11-04T15:52:20;4.83;;;1.20;;
50815;SDS011;39717;47.324;8.788;2022-11-04T15:54:47;3.17;;;1.50;;
50815;SDS011;39717;47.324;8.788;2022-11-04T15:59:44;4.33;;;1.60;;
50815;SDS011;39717;47.324;8.788;2022-11-04T16:02:19;3.17;;;1.53;;
50815;SDS011;39717;47.324;8.788;2022-11-04T16:04:54;4.50;;;1.90;;
50815;SDS011;39717;47.324;8.788;2022-11-04T16:07:28;2.97;;;2.37;;
50815;SDS011;39717;47.324;8.788;2022-11-04T16:09:55;6.07;;;2.40;;
50815;SDS011;39717;47.324;8.788;2022-11-04T16:12:28;5.70;;;3.40;;
50815;SDS011;39717;47.324;8.788;2022-11-04T16:14:56;6.37;;;4.33;;
50815;SDS011;39717;47.324;8.788;2022-11-04T16:17:23;8.57;;;5.87;;
50815;SDS011;39717;47.324;8.788;2022-11-04T16:19:51;14.87;;;8.40;;
50815;SDS011;39717;47.324;8.788;2022-11-04T16:22:20;11.03;;;7.50;;
50815;SDS011;39717;47.324;8.788;2022-11-04T16:24:50;4.47;;;2.40;;
50815;SDS011;39717;47.324;8.788;2022-11-04T16:27:19;2.40;;;1.70;;
50815;SDS011;39717;47.324;8.788;2022-11-04T16:30:07;16.77;;;7.80;;
50815;SDS011;39717;47.324;8.788;2022-11-04T16:32:39;12.70;;;7.47;;
50815;SDS011;39717;47.324;8.788;2022-11-04T16:35:11;11.40;;;6.37;;
50815;SDS011;39717;47.324;8.788;2022-11-04T16:37:38;17.30;;;10.90;;
50815;SDS011;39717;47.324;8.788;2022-11-04T16:40:04;19.13;;;9.80;;
50815;SDS011;39717;47.324;8.788;2022-11-04T16:42:31;8.63;;;4.17;;
50815;SDS011;39717;47.324;8.788;2022-11-04T16:44:59;5.67;;;3.40;;
50815;SDS011;39717;47.324;8.788;2022-11-04T16:47:26;4.53;;;2.57;;
50815;SDS011;39717;47.324;8.788;2022-11-04T16:50:00;5.97;;;2.27;;
50815;SDS011;39717;47.324;8.788;2022-11-04T16:52:27;5.93;;;2.40;;
50815;SDS011;39717;47.324;8.788;2022-11-04T16:54:53;2.23;;;1.70;;
50815;SDS011;39717;47.324;8.788;2022-11-04T16:57:21;6.27;;;3.07;;
50815;SDS011;39717;47.324;8.788;2022-11-04T16:59:48;3.77;;;2.43;;
50815;SDS011;39717;47.324;8.788;2022-11-04T17:04:47;5.37;;;2.77;;
50815;SDS011;39717;47.324;8.788;2022-11-04T17:07:13;7.80;;;5.53;;
50815;SDS011;39717;47.324;8.788;2022-11-04T17:09:39;10.23;;;5.80;;
50815;SDS011;39717;47.324;8.788;2022-11-04T17:12:05;4.20;;;2.70;;
50815;SDS011;39717;47.324;8.788;2022-11-04T17:14:31;3.43;;;2.10;;
50815;SDS011;39717;47.324;8.788;2022-11-04T17:16:57;4.83;;;3.77;;
50815;SDS011;39717;47.324;8.788;2022-11-04T17:19:23;2.27;;;2.03;;
50815;SDS011;39717;47.324;8.788;2022-11-04T17:21:50;6.17;;;2.40;;
50815;SDS011;39717;47.324;8.788;2022-11-04T17:24:16;9.00;;;7.90;;
50815;SDS011;39717;47.324;8.788;2022-11-04T17:26:42;14.63;;;9.20;;
50815;SDS011;39717;47.324;8.788;2022-11-04T17:29:08;15.07;;;11.87;;